EW7504 Weather Reports


Display with metric or nautical units.
time (UTC)temp
F
wind
direction
speed
MPH
gust
MPH
rain 1hr
in
rain 24hr
in
rain mn
in
humidity
%
barometer
mb
20190617063604 77 202 1.0 2.0 0.00 0.00 0.00 27 1014.4
20190617060525 81 202 0.0 3.0 0.00 0.00 0.00 24 1014.1
20190617053618 84 248 2.0 4.0 0.00 0.00 0.00 21 1014.2
20190617050615 85 248 2.0 4.0 0.00 0.00 0.00 17 1013.9
20190617043614 84 243 3.0 5.0 0.00 0.00 0.00 14 1013.4
20190617040613 86 191 0.0 4.0 0.00 0.00 0.00 13 1012.7
20190617033603 88 205 2.0 5.0 0.00 0.00 0.00 11 1012.4
20190617030606 90 198 2.0 5.0 0.00 0.00 0.00 11 1012.0
20190617023605 93 194 3.0 9.0 0.00 0.00 0.00 10 1011.9
20190617020559 95 184 3.0 9.0 0.00 0.00 0.00 10 1011.5
20190617013604 97 186 5.0 9.0 0.00 0.00 0.00 10 1011.7
20190617010612 99 188 7.0 11.0 0.00 0.00 0.00 10 1011.4
20190617003617 100 209 9.0 12.0 0.00 0.00 0.00 10 1011.2
20190617000603 101 241 4.0 11.0 0.00 0.00 0.00 11 1011.1
20190616233609 102 183 6.0 12.0 0.00 0.00 0.00 11 1011.5
20190616230603 102 191 3.0 11.0 0.00 0.00 0.00 11 1011.7
20190616223606 100 311 1.0 5.0 0.00 0.00 0.00 13 1011.9
20190616220612 101 269 3.0 7.0 0.00 0.00 0.00 13 1012.3
20190616213620 100 249 6.0 10.0 0.00 0.00 0.00 13 1012.6
20190616210604 99 285 2.0 10.0 0.00 0.00 0.00 13 1013.0
20190616203601 99 263 4.0 7.0 0.00 0.00 0.00 14 1013.4
20190616200611 100 228 5.0 6.0 0.00 0.00 0.00 14 1013.8
20190616193608 96 40 2.0 7.0 0.00 0.00 0.00 13 1014.2
20190616190617 96 353 1.0 6.0 0.00 0.00 0.00 15 1014.8
20190616183604 96 258 1.0 6.0 0.00 0.00 0.00 16 1015.1
20190616180611 93 0 3.0 6.0 0.00 0.00 0.00 17 1015.3
20190616173613 92 37 1.0 6.0 0.00 0.00 0.00 19 1015.7
20190616170602 92 195 5.0 5.0 0.00 0.00 0.00 19 1016.0
20190616163611 90 154 2.0 6.0 0.00 0.00 0.00 20 1016.0
20190616160605 88 136 4.0 5.0 0.00 0.00 0.00 20 1016.2
20190616153614 86 148 2.0 5.0 0.00 0.00 0.00 22 1016.4
20190616150603 83 157 2.0 6.0 0.00 0.00 0.00 24 1016.3
20190616143614 81 141 8.0 8.0 0.00 0.00 0.00 27 1016.4
20190616140621 79 131 5.0 5.0 0.00 0.00 0.00 28 1016.3
20190616133622 75 126 1.0 4.0 0.00 0.00 0.00 30 1016.1
20190616130614 71 128 3.0 7.0 0.00 0.00 0.00 33 1016.0
20190616123600 67 295 0.0 2.0 0.00 0.00 0.00 35 1015.9
20190616120608 67 295 0.0 2.0 0.00 0.00 0.00 35 1015.2
20190616113605 69 294 1.0 1.0 0.00 0.00 0.00 33 1015.1
20190616110558 69 294 2.0 2.0 0.00 0.00 0.00 33 1015.0
20190616103610 71 294 0.0 2.0 0.00 0.00 0.00 31 1014.8
20190616100600 73 294 1.0 3.0 0.00 0.00 0.00 32 1014.8
20190616093610 73 294 3.0 4.0 0.00 0.00 0.00 30 1014.6
20190616090605 74 294 1.0 4.0 0.00 0.00 0.00 28 1014.5
20190616083619 74 294 1.0 2.0 0.00 0.00 0.00 27 1014.8
20190616080616 75 294 1.0 3.0 0.00 0.00 0.00 25 1014.9
20190616073603 76 294 1.0 2.0 0.00 0.00 0.00 23 1015.2
20190616070603 78 294 1.0 3.0 0.00 0.00 0.00 24 1015.4